createdAt,value
2018-01-04T00:00:36.718Z,98434.38
2018-01-04T00:03:04.379Z,98460.72
2018-01-04T00:05:32.232Z,98455.42
2018-01-04T00:07:59.889Z,98463.27
2018-01-04T00:10:27.561Z,98460.63
2018-01-04T00:12:55.166Z,98466.05
2018-01-04T00:15:22.953Z,98470.45
2018-01-04T00:17:50.627Z,98481.72
2018-01-04T00:20:18.390Z,98485.50
2018-01-04T00:22:46.071Z,98488.23
2018-01-04T00:25:13.729Z,98500.94
2018-01-04T00:27:41.470Z,98505.93
2018-01-04T00:30:09.196Z,98506.22
2018-01-04T00:32:36.873Z,98526.64
2018-01-04T00:35:04.600Z,98527.98
2018-01-04T00:37:32.284Z,98546.21
2018-01-04T00:40:00.020Z,98545.31
2018-01-04T00:42:27.713Z,98549.08
2018-01-04T00:44:55.424Z,98537.33
2018-01-04T00:47:23.113Z,98550.46
2018-01-04T00:49:50.804Z,98550.34
2018-01-04T00:52:18.419Z,98546.23
2018-01-04T00:54:46.087Z,98550.72
2018-01-04T00:57:13.782Z,98567.16
2018-01-04T00:59:41.484Z,98577.41
2018-01-04T01:02:10.933Z,98565.48
2018-01-04T01:04:44.197Z,98579.27
2018-01-04T01:07:15.733Z,98586.31
2018-01-04T01:09:44.052Z,98586.28
2018-01-04T01:12:13.438Z,98586.33
2018-01-04T01:14:41.119Z,98584.49
2018-01-04T01:17:08.780Z,98582.09
2018-01-04T01:19:36.405Z,98588.64
2018-01-04T01:22:04.143Z,98602.02
2018-01-04T01:24:31.820Z,98607.51
2018-01-04T01:26:59.517Z,98601.41
2018-01-04T01:29:27.139Z,98605.89
2018-01-04T01:31:54.866Z,98612.81
2018-01-04T01:34:22.539Z,98616.84
2018-01-04T01:36:50.206Z,98624.06
2018-01-04T01:39:17.819Z,98623.52
2018-01-04T01:41:45.545Z,98614.48
2018-01-04T01:44:13.212Z,98623.02
2018-01-04T01:46:40.918Z,98623.01
2018-01-04T01:49:15.290Z,98614.01
2018-01-04T01:51:42.946Z,98624.41
2018-01-04T01:54:10.649Z,98632.33
2018-01-04T01:56:38.383Z,98629.19
2018-01-04T01:59:06.056Z,98637.13
2018-01-04T02:01:33.777Z,98642.09
2018-01-04T02:04:01.424Z,98648.64
2018-01-04T02:06:29.141Z,98662.14
2018-01-04T02:08:56.945Z,98673.58
2018-01-04T02:11:24.613Z,98668.45
2018-01-04T02:13:52.289Z,98676.95
2018-01-04T02:16:21.827Z,98675.67
2018-01-04T02:19:01.219Z,98687.17
2018-01-04T02:21:40.646Z,98688.26
2018-01-04T02:24:19.980Z,98697.56
2018-01-04T02:26:59.500Z,98703.25
2018-01-04T02:29:39.124Z,98707.23
2018-01-04T02:32:18.543Z,98706.20
2018-01-04T02:38:03.377Z,98716.29
2018-01-04T02:40:42.781Z,98721.33
2018-01-04T02:43:22.331Z,98719.91
2018-01-04T02:46:01.693Z,98723.73
2018-01-04T02:48:29.385Z,98734.88
2018-01-04T02:50:57.070Z,98716.83
2018-01-04T02:53:24.684Z,98730.22
2018-01-04T02:55:52.378Z,98727.38
2018-01-04T02:58:20.049Z,98735.74
2018-01-04T03:00:47.820Z,98743.83
2018-01-04T03:03:15.552Z,98761.38
2018-01-04T03:05:43.164Z,98756.27
2018-01-04T03:08:10.907Z,98760.34
2018-01-04T03:10:38.532Z,98766.49
2018-01-04T03:13:06.266Z,98764.04
2018-01-04T03:15:33.935Z,98770.22
2018-01-04T03:18:01.592Z,98776.72
2018-01-04T03:20:29.220Z,98778.66
2018-01-04T03:23:02.673Z,98775.74
2018-01-04T03:25:36.113Z,98794.06
2018-01-04T03:28:09.414Z,98799.43
2018-01-04T03:30:42.840Z,98811.51
2018-01-04T03:36:17.288Z,98824.03
2018-01-04T03:38:50.408Z,98812.86
2018-01-04T03:41:23.824Z,98823.19
2018-01-04T03:43:57.184Z,98806.81
2018-01-04T03:46:30.559Z,98824.86
2018-01-04T03:49:03.652Z,98830.13
2018-01-04T03:51:36.963Z,98841.55
2018-01-04T03:54:10.343Z,98838.53
2018-01-04T03:56:43.688Z,98845.19
2018-01-04T03:59:16.879Z,98846.75
2018-01-04T04:01:50.279Z,98853.09
2018-01-04T04:04:23.624Z,98839.56
2018-01-04T04:09:55.050Z,98844.30
2018-01-04T04:12:22.781Z,98849.36
2018-01-04T04:14:50.396Z,98856.10
2018-01-04T04:17:18.065Z,98850.17
2018-01-04T04:19:45.743Z,98865.20
2018-01-04T04:22:13.417Z,98869.56
2018-01-04T04:24:41.053Z,98865.52
2018-01-04T04:27:08.778Z,98876.94
2018-01-04T04:29:36.407Z,98882.65
2018-01-04T04:32:04.163Z,98880.30
2018-01-04T04:34:31.849Z,98892.62
2018-01-04T04:36:59.583Z,98887.58
2018-01-04T04:39:27.257Z,98894.39
2018-01-04T04:41:54.917Z,98902.11
2018-01-04T04:44:22.564Z,98906.97
2018-01-04T04:46:50.308Z,98902.02
2018-01-04T04:49:18.002Z,98904.87
2018-01-04T04:51:45.681Z,98911.09
2018-01-04T04:54:13.348Z,98911.59
2018-01-04T04:56:41.023Z,98908.16
2018-01-04T04:59:08.776Z,98909.70
2018-01-04T05:01:36.458Z,98914.91
2018-01-04T05:04:04.185Z,98914.34
2018-01-04T05:06:31.869Z,98925.64
2018-01-04T05:08:59.595Z,98923.36
2018-01-04T05:11:27.332Z,98917.58
2018-01-04T05:13:55.070Z,98940.03
2018-01-04T05:16:22.755Z,98930.33
2018-01-04T05:18:50.441Z,98926.84
2018-01-04T05:21:18.048Z,98937.58
2018-01-04T05:23:45.796Z,98939.21
2018-01-04T05:26:13.495Z,98943.20
2018-01-04T05:28:41.236Z,98947.09
2018-01-04T05:31:08.931Z,98943.70
2018-01-04T05:33:36.710Z,98945.27
2018-01-04T05:36:04.333Z,98947.12
2018-01-04T05:38:32.002Z,98945.52
2018-01-04T05:40:59.718Z,98943.73
2018-01-04T05:43:27.451Z,98950.77
2018-01-04T05:45:55.134Z,98950.04
2018-01-04T05:48:22.892Z,98949.56
2018-01-04T05:50:50.573Z,98955.50
2018-01-04T05:53:18.308Z,98953.89
2018-01-04T05:55:45.979Z,98952.33
2018-01-04T05:58:13.647Z,98956.06
2018-01-04T06:00:41.295Z,98959.16
2018-01-04T06:03:09.024Z,98957.78
2018-01-04T06:05:36.653Z,98961.36
2018-01-04T06:08:04.382Z,98959.08
2018-01-04T06:10:32.009Z,98959.64
2018-01-04T06:12:59.683Z,98959.42
2018-01-04T06:15:27.333Z,98964.19
2018-01-04T06:17:55.019Z,98965.07
2018-01-04T06:20:22.648Z,98964.83
2018-01-04T06:22:50.315Z,98969.19
2018-01-04T06:25:17.924Z,98972.45
2018-01-04T06:27:45.586Z,98976.19
2018-01-04T06:30:13.257Z,98980.74
2018-01-04T06:32:40.873Z,98984.39
2018-01-04T06:35:08.531Z,98985.58
2018-01-04T06:37:36.155Z,98985.36
2018-01-04T06:40:03.823Z,98991.52
2018-01-04T06:42:31.436Z,98990.32
2018-01-04T06:44:59.177Z,98980.15
2018-01-04T06:47:26.856Z,98979.09
2018-01-04T06:49:54.596Z,98984.61
2018-01-04T06:52:22.285Z,98984.98
2018-01-04T06:54:50.017Z,98982.89
2018-01-04T06:57:17.715Z,98990.05
2018-01-04T06:59:45.452Z,98986.03
2018-01-04T07:02:13.227Z,98988.95
2018-01-04T07:04:40.897Z,98989.86
2018-01-04T07:07:08.569Z,99001.70
2018-01-04T07:09:36.283Z,99003.27
2018-01-04T07:12:03.906Z,99005.78
2018-01-04T07:14:31.581Z,99010.59
2018-01-04T07:16:59.316Z,99012.38
2018-01-04T07:19:26.982Z,99005.56
2018-01-04T07:21:54.604Z,99013.51
2018-01-04T07:24:22.279Z,99011.97
2018-01-04T07:26:49.966Z,99010.09
2018-01-04T07:29:17.716Z,99009.02
2018-01-04T07:31:45.420Z,99006.66
2018-01-04T07:34:13.176Z,99013.58
2018-01-04T07:36:40.795Z,99014.36
2018-01-04T07:39:08.441Z,99024.13
2018-01-04T07:41:36.174Z,99024.13
2018-01-04T07:44:03.869Z,99027.05
2018-01-04T07:46:31.587Z,99031.91
2018-01-04T07:48:59.267Z,99033.30
2018-01-04T07:51:27.003Z,99038.58
2018-01-04T07:53:54.634Z,99039.55
2018-01-04T07:56:22.428Z,99045.89
2018-01-04T07:58:50.053Z,99055.72
2018-01-04T08:01:17.778Z,99056.63
2018-01-04T08:03:45.477Z,99060.30
2018-01-04T08:06:13.204Z,99051.53
2018-01-04T08:08:40.828Z,99055.68
2018-01-04T08:11:08.637Z,99055.66
2018-01-04T08:13:36.321Z,99056.38
2018-01-04T08:16:04.050Z,99057.17
2018-01-04T08:18:31.763Z,99054.88
2018-01-04T08:20:59.505Z,99062.73
2018-01-04T08:23:27.139Z,99059.72
2018-01-04T08:25:54.884Z,99056.30
2018-01-04T08:28:22.564Z,99057.34
2018-01-04T08:30:50.441Z,99066.52
2018-01-04T08:33:18.291Z,99056.68
2018-01-04T08:35:46.127Z,99060.89
2018-01-04T08:38:14.007Z,99057.63
2018-01-04T08:40:42.597Z,99063.81
2018-01-04T08:43:10.308Z,99061.11
2018-01-04T08:45:38.047Z,99063.47
2018-01-04T08:48:05.907Z,99064.63
2018-01-04T08:50:33.728Z,99067.30
2018-01-04T08:53:01.585Z,99069.56
2018-01-04T08:55:29.377Z,99077.95
2018-01-04T08:57:57.187Z,99072.20
2018-01-04T09:00:24.892Z,99070.29
2018-01-04T09:02:52.794Z,99071.52
2018-01-04T09:05:20.700Z,99077.77
2018-01-04T09:07:48.600Z,99074.97
2018-01-04T09:10:16.307Z,99072.42
2018-01-04T09:12:44.076Z,99080.08
2018-01-04T09:15:11.772Z,99073.59
2018-01-04T09:17:39.647Z,99079.80
2018-01-04T09:20:07.396Z,99085.97
2018-01-04T09:22:35.095Z,99089.20
2018-01-04T09:25:02.843Z,99084.05
2018-01-04T09:27:30.530Z,99089.09
2018-01-04T09:29:58.253Z,99087.17
2018-01-04T09:32:25.942Z,99087.08
2018-01-04T09:34:53.669Z,99078.15
2018-01-04T09:37:21.375Z,99080.00
2018-01-04T09:39:49.154Z,99081.28
2018-01-04T09:42:16.868Z,99090.94
2018-01-04T09:44:44.641Z,99090.88
2018-01-04T09:47:12.328Z,99092.06
2018-01-04T09:49:40.061Z,99094.84
2018-01-04T09:52:07.755Z,99099.39
2018-01-04T09:54:35.521Z,99112.92
2018-01-04T09:57:03.201Z,99119.72
2018-01-04T09:59:30.943Z,99110.75
2018-01-04T10:01:58.647Z,99109.16
2018-01-04T10:04:26.391Z,99110.64
2018-01-04T10:06:54.075Z,99115.35
2018-01-04T10:09:21.740Z,99109.25
2018-01-04T10:11:49.352Z,99116.58
2018-01-04T10:14:17.026Z,99116.98
2018-01-04T10:16:44.728Z,99110.27
2018-01-04T10:19:12.396Z,99113.84
2018-01-04T10:21:40.074Z,99112.44
2018-01-04T10:24:07.798Z,99114.13
2018-01-04T10:26:35.481Z,99108.44
2018-01-04T10:29:03.209Z,99105.93
2018-01-04T10:31:30.921Z,99107.00
2018-01-04T10:33:58.664Z,99108.00
2018-01-04T10:36:26.371Z,99107.53
2018-01-04T10:38:54.013Z,99109.10
2018-01-04T10:41:21.732Z,99115.89
2018-01-04T10:44:32.339Z,99104.23
2018-01-04T10:47:00.128Z,99108.54
2018-01-04T10:49:27.875Z,99101.47
2018-01-04T10:51:55.597Z,99105.42
2018-01-04T10:54:23.276Z,99102.47
2018-01-04T10:56:50.887Z,99102.31
2018-01-04T10:59:19.576Z,99091.22
2018-01-04T11:01:47.213Z,99093.76
2018-01-04T11:04:14.897Z,99092.38
2018-01-04T11:06:42.527Z,99089.52
2018-01-04T11:09:10.195Z,99092.84
2018-01-04T11:11:37.881Z,99089.67
2018-01-04T11:14:05.519Z,99086.96
2018-01-04T11:16:33.203Z,99087.62
2018-01-04T11:19:00.895Z,99092.55
2018-01-04T11:21:28.565Z,99089.44
2018-01-04T11:23:56.257Z,99085.66
2018-01-04T11:26:23.990Z,99081.75
2018-01-04T11:28:51.611Z,99084.36
2018-01-04T11:31:19.277Z,99085.67
2018-01-04T11:33:46.978Z,99084.24
2018-01-04T11:36:14.666Z,99084.14
2018-01-04T11:38:42.318Z,99077.52
2018-01-04T11:41:09.976Z,99080.29
2018-01-04T11:43:37.674Z,99078.59
2018-01-04T11:46:05.487Z,99078.69
2018-01-04T11:48:33.189Z,99079.50
2018-01-04T11:51:00.920Z,99072.91
2018-01-04T11:53:28.643Z,99072.38
2018-01-04T11:55:56.397Z,99063.88
2018-01-04T11:58:24.124Z,99060.90
2018-01-04T12:00:51.890Z,99064.48
2018-01-04T12:03:19.522Z,99057.57
2018-01-04T12:05:47.211Z,99062.89
2018-01-04T12:08:14.907Z,99060.59
2018-01-04T12:10:42.709Z,99060.43
2018-01-04T12:13:10.473Z,99058.19
2018-01-04T12:15:38.214Z,99049.02
2018-01-04T12:18:05.906Z,99035.55
2018-01-04T12:20:33.608Z,99049.95
2018-01-04T12:23:01.289Z,99052.36
2018-01-04T12:25:29.032Z,99050.52
2018-01-04T12:27:56.801Z,99040.45
2018-01-04T12:30:24.546Z,99038.70
2018-01-04T12:32:52.245Z,99042.99
2018-01-04T12:35:19.974Z,99043.05
2018-01-04T12:37:47.667Z,99043.81
2018-01-04T12:40:15.402Z,99039.17
2018-01-04T12:42:43.111Z,99041.09
2018-01-04T12:45:10.955Z,99034.16
2018-01-04T12:47:38.658Z,99043.35
2018-01-04T12:50:06.328Z,99052.62
2018-01-04T12:52:34.026Z,99049.66
2018-01-04T12:55:01.756Z,99045.85
2018-01-04T12:57:29.484Z,99040.22
2018-01-04T12:59:57.102Z,99043.56
2018-01-04T13:02:24.848Z,99043.08
2018-01-04T13:04:52.523Z,99043.21
2018-01-04T13:07:20.280Z,99043.05
2018-01-04T13:09:47.998Z,99038.75
2018-01-04T13:12:15.792Z,99034.70
2018-01-04T13:14:43.484Z,99038.96
2018-01-04T13:17:11.224Z,99039.23
2018-01-04T13:19:38.915Z,99037.55
2018-01-04T13:22:06.585Z,99036.51
2018-01-04T13:24:34.236Z,99030.26
2018-01-04T13:27:01.979Z,99029.12
2018-01-04T13:29:29.665Z,99029.53
2018-01-04T13:31:57.405Z,99030.97
2018-01-04T13:34:25.087Z,99024.40
2018-01-04T13:36:52.814Z,99021.89
2018-01-04T13:39:20.507Z,99020.61
2018-01-04T13:41:48.172Z,99030.66
2018-01-04T13:44:15.873Z,99026.66
2018-01-04T13:46:43.549Z,99021.19
2018-01-04T13:49:11.269Z,99022.77
2018-01-04T13:51:38.989Z,99018.09
2018-01-04T13:54:06.686Z,99018.30
2018-01-04T13:56:34.426Z,99018.66
2018-01-04T13:59:02.128Z,99015.27
2018-01-04T14:01:29.791Z,99010.59
2018-01-04T14:03:57.444Z,99014.72
2018-01-04T14:06:25.210Z,99016.19
2018-01-04T14:08:52.906Z,99024.98
2018-01-04T14:11:20.620Z,99016.28
2018-01-04T14:13:48.374Z,99017.47
2018-01-04T14:16:16.096Z,99017.09
2018-01-04T14:18:43.740Z,99025.80
2018-01-04T14:21:11.498Z,99022.44
2018-01-04T14:23:39.191Z,99022.52
2018-01-04T14:26:06.851Z,99026.18
2018-01-04T14:28:34.625Z,99028.91
2018-01-04T14:31:02.273Z,99023.38
2018-01-04T14:33:30.056Z,99022.14
2018-01-04T14:35:57.817Z,99025.02
2018-01-04T14:38:25.548Z,99024.82
2018-01-04T14:40:53.168Z,99021.50
2018-01-04T14:43:20.840Z,99034.92
2018-01-04T14:45:48.467Z,99033.17
2018-01-04T14:48:16.155Z,99029.34
2018-01-04T14:50:43.790Z,99036.67
2018-01-04T14:53:11.460Z,99034.98
2018-01-04T14:55:39.119Z,99033.75
2018-01-04T14:58:06.829Z,99028.41
2018-01-04T15:00:34.455Z,99034.75
2018-01-04T15:03:02.123Z,99042.84
2018-01-04T15:05:29.745Z,99035.20
2018-01-04T15:07:57.407Z,99022.70
2018-01-04T15:10:25.029Z,99027.06
2018-01-04T15:12:52.700Z,99024.99
2018-01-04T15:15:20.333Z,99017.87
2018-01-04T15:17:48.072Z,99017.39
2018-01-04T15:20:15.699Z,99015.14
2018-01-04T15:22:43.368Z,99025.02
2018-01-04T15:25:10.980Z,99015.37
2018-01-04T15:27:38.699Z,99017.82
2018-01-04T15:32:57.173Z,99008.52
2018-01-04T15:35:24.881Z,99006.70
2018-01-04T15:37:52.607Z,99008.11
2018-01-04T15:40:20.342Z,99008.86
2018-01-04T15:42:48.077Z,98997.74
2018-01-04T15:45:15.790Z,99007.41
2018-01-04T15:47:43.540Z,99008.92
2018-01-04T15:50:11.157Z,99010.56
2018-01-04T15:52:38.908Z,99009.40
2018-01-04T15:55:06.599Z,99005.23
2018-01-04T15:57:34.269Z,99003.91
2018-01-04T16:00:01.973Z,99000.92
2018-01-04T16:02:29.712Z,99001.02
2018-01-04T16:04:57.391Z,98990.05
2018-01-04T16:07:25.109Z,98989.17
2018-01-04T16:09:52.797Z,98983.80
2018-01-04T16:12:20.577Z,98975.20
2018-01-04T16:14:48.263Z,98973.34
2018-01-04T16:17:16.003Z,98972.06
2018-01-04T16:19:43.708Z,98975.23
2018-01-04T16:22:11.407Z,98970.02
2018-01-04T16:24:39.077Z,98967.19
2018-01-04T16:27:06.776Z,98968.45
2018-01-04T16:29:34.571Z,98963.39
2018-01-04T16:32:02.280Z,98960.38
2018-01-04T16:34:29.995Z,98964.77
2018-01-04T16:36:57.681Z,98958.68
2018-01-04T16:39:25.421Z,98950.30
2018-01-04T16:41:53.094Z,98938.94
2018-01-04T16:44:20.828Z,98931.97
2018-01-04T16:46:48.521Z,98934.98
2018-01-04T16:49:17.891Z,98931.80
2018-01-04T16:51:45.607Z,98919.53
2018-01-04T16:54:13.311Z,98915.95
2018-01-04T16:56:41.003Z,98913.03
2018-01-04T16:59:08.674Z,98908.23
2018-01-04T17:01:36.360Z,98905.41
2018-01-04T17:04:04.041Z,98904.12
2018-01-04T17:06:31.730Z,98906.47
2018-01-04T17:08:59.398Z,98902.33
2018-01-04T17:11:27.142Z,98910.05
2018-01-04T17:13:54.839Z,98904.37
2018-01-04T17:16:22.465Z,98905.81
2018-01-04T17:18:50.133Z,98905.31
2018-01-04T17:21:17.802Z,98900.82
2018-01-04T17:23:45.502Z,98900.51
2018-01-04T17:26:13.177Z,98892.62
2018-01-04T17:28:40.871Z,98886.13
2018-01-04T17:31:08.503Z,98878.88
2018-01-04T17:33:36.281Z,98874.83
2018-01-04T17:36:03.916Z,98878.47
2018-01-04T17:38:31.709Z,98869.45
2018-01-04T17:40:59.405Z,98864.14
2018-01-04T17:43:27.147Z,98859.44
2018-01-04T17:45:54.869Z,98856.52
2018-01-04T17:48:22.608Z,98844.55
2018-01-04T17:50:50.239Z,98834.72
2018-01-04T17:53:18.013Z,98831.04
2018-01-04T17:55:45.713Z,98834.42
2018-01-04T17:58:13.465Z,98836.06
2018-01-04T18:00:41.186Z,98820.14
2018-01-04T18:03:08.936Z,98823.36
2018-01-04T18:05:36.587Z,98823.27
2018-01-04T18:08:04.281Z,98811.45
2018-01-04T18:10:32.069Z,98808.59
2018-01-04T18:12:59.761Z,98810.02
2018-01-04T18:15:27.506Z,98802.80
2018-01-04T18:17:55.130Z,98805.62
2018-01-04T18:20:22.869Z,98798.95
2018-01-04T18:22:50.617Z,98798.04
2018-01-04T18:25:18.399Z,98793.55
2018-01-04T18:27:46.237Z,98790.83
2018-01-04T18:30:14.030Z,98787.69
2018-01-04T18:32:41.860Z,98792.62
2018-01-04T18:35:09.667Z,98784.52
2018-01-04T18:37:37.750Z,98778.80
2018-01-04T18:40:05.539Z,98784.93
2018-01-04T18:42:33.318Z,98772.66
2018-01-04T18:45:01.082Z,98774.14
2018-01-04T18:47:28.832Z,98771.12
2018-01-04T18:49:56.547Z,98769.75
2018-01-04T18:52:24.268Z,98766.92
2018-01-04T18:54:52.005Z,98759.95
2018-01-04T18:57:19.754Z,98760.47
2018-01-04T18:59:47.549Z,98758.84
2018-01-04T19:02:15.238Z,98751.72
2018-01-04T19:04:43.040Z,98739.91
2018-01-04T19:07:10.715Z,98738.77
2018-01-04T19:09:38.493Z,98741.99
2018-01-04T19:12:06.167Z,98742.16
2018-01-04T19:14:33.928Z,98748.09
2018-01-04T19:17:01.668Z,98738.06
2018-01-04T19:19:29.404Z,98740.26
2018-01-04T19:21:57.130Z,98738.88
2018-01-04T19:24:24.805Z,98735.70
2018-01-04T19:26:52.480Z,98733.76
2018-01-04T19:29:20.215Z,98731.16
2018-01-04T19:31:47.893Z,98738.47
2018-01-04T19:34:15.613Z,98727.41
2018-01-04T19:36:43.296Z,98728.80
2018-01-04T19:39:11.054Z,98724.24
2018-01-04T19:41:38.693Z,98719.64
2018-01-04T19:44:06.453Z,98721.78
2018-01-04T19:46:34.133Z,98712.42
2018-01-04T19:49:01.821Z,98716.92
2018-01-04T19:51:29.540Z,98704.44
2018-01-04T19:53:57.215Z,98705.41
2018-01-04T19:56:24.961Z,98707.36
2018-01-04T19:58:52.648Z,98695.27
2018-01-04T20:01:20.390Z,98695.03
2018-01-04T20:03:48.067Z,98686.89
2018-01-04T20:06:15.885Z,98684.08
2018-01-04T20:08:43.557Z,98680.09
2018-01-04T20:11:11.288Z,98684.02
2018-01-04T20:13:38.991Z,98681.98
2018-01-04T20:16:06.727Z,98678.77
2018-01-04T20:18:34.467Z,98666.69
2018-01-04T20:21:02.207Z,98662.95
2018-01-04T20:23:29.870Z,98664.55
2018-01-04T20:25:57.604Z,98656.66
2018-01-04T20:28:25.309Z,98652.67
2018-01-04T20:30:53.035Z,98642.60
2018-01-04T20:33:20.727Z,98640.59
2018-01-04T20:35:48.454Z,98641.81
2018-01-04T20:38:16.123Z,98634.26
2018-01-04T20:40:43.878Z,98623.86
2018-01-04T20:43:11.555Z,98624.42
2018-01-04T20:45:39.288Z,98614.86
2018-01-04T20:48:07.029Z,98606.33
2018-01-04T20:50:34.757Z,98603.35
2018-01-04T20:53:02.457Z,98594.58
2018-01-04T20:55:30.187Z,98581.17
2018-01-04T20:57:57.871Z,98564.35
2018-01-04T21:00:25.606Z,98558.58
2018-01-04T21:02:53.450Z,98581.09
2018-01-04T21:05:21.168Z,98586.04
2018-01-04T21:07:48.842Z,98579.38
2018-01-04T21:10:16.573Z,98573.53
2018-01-04T21:12:44.244Z,98570.82
2018-01-04T21:15:11.993Z,98568.87
2018-01-04T21:17:39.682Z,98569.13
2018-01-04T21:20:08.443Z,98553.33
2018-01-04T21:22:36.139Z,98553.33
2018-01-04T21:25:03.855Z,98540.33
2018-01-04T21:27:31.566Z,98520.82
2018-01-04T21:29:59.253Z,98515.91
2018-01-04T21:32:27.065Z,98513.85
2018-01-04T21:34:54.810Z,98515.64
2018-01-04T21:37:22.605Z,98515.08
2018-01-04T21:39:50.348Z,98514.84
2018-01-04T21:42:18.145Z,98516.52
2018-01-04T21:44:45.881Z,98517.30
2018-01-04T21:47:13.684Z,98523.59
2018-01-04T21:49:41.353Z,98521.40
2018-01-04T21:52:09.065Z,98523.59
2018-01-04T21:54:36.749Z,98521.56
2018-01-04T21:57:04.532Z,98516.44
2018-01-04T21:59:32.202Z,98521.40
2018-01-04T22:02:00.008Z,98513.97
2018-01-04T22:04:27.742Z,98517.38
2018-01-04T22:06:55.548Z,98512.66
2018-01-04T22:09:23.216Z,98510.28
2018-01-04T22:11:50.951Z,98498.66
2018-01-04T22:14:18.678Z,98499.30
2018-01-04T22:16:46.476Z,98492.80
2018-01-04T22:19:14.235Z,98494.64
2018-01-04T22:21:42.028Z,98487.20
2018-01-04T22:24:09.706Z,98484.85
2018-01-04T22:26:37.500Z,98482.30
2018-01-04T22:29:05.164Z,98474.08
2018-01-04T22:31:32.960Z,98466.81
2018-01-04T22:34:00.687Z,98474.83
2018-01-04T22:36:28.517Z,98473.73
2018-01-04T22:38:56.284Z,98476.95
2018-01-04T22:41:23.996Z,98465.53
2018-01-04T22:43:51.757Z,98472.33
2018-01-04T22:46:19.551Z,98463.22
2018-01-04T22:48:47.309Z,98468.59
2018-01-04T22:51:15.083Z,98460.53
2018-01-04T22:53:42.827Z,98466.11
2018-01-04T22:56:10.622Z,98453.31
2018-01-04T22:58:38.349Z,98456.41
2018-01-04T23:01:06.159Z,98465.52
2018-01-04T23:03:33.834Z,98463.56
2018-01-04T23:06:01.591Z,98467.59
2018-01-04T23:08:29.384Z,98472.06
2018-01-04T23:10:57.054Z,98480.48
2018-01-04T23:13:24.838Z,98474.19
2018-01-04T23:15:52.625Z,98475.00
2018-01-04T23:18:20.415Z,98481.80
2018-01-04T23:20:48.170Z,98473.33
2018-01-04T23:23:15.952Z,98480.86
2018-01-04T23:25:43.702Z,98484.65
2018-01-04T23:28:11.484Z,98490.99
2018-01-04T23:30:39.182Z,98480.38
2018-01-04T23:33:06.970Z,98480.45
2018-01-04T23:35:34.714Z,98491.56
2018-01-04T23:38:02.391Z,98484.29
2018-01-04T23:40:30.050Z,98486.08
2018-01-04T23:42:57.841Z,98481.59
2018-01-04T23:45:25.503Z,98487.98
2018-01-04T23:47:53.215Z,98484.61
2018-01-04T23:50:20.920Z,98486.20
2018-01-04T23:52:48.635Z,98486.31
2018-01-04T23:55:16.310Z,98485.14
2018-01-04T23:57:44.010Z,98481.56
